createdAt,value
2019-04-30T00:00:01.100Z,51.53
2019-04-30T00:02:38.401Z,53.40
2019-04-30T00:05:01.468Z,56.63
2019-04-30T00:07:30.001Z,52.40
2019-04-30T00:09:58.469Z,50.67
2019-04-30T00:12:30.794Z,54.07
2019-04-30T00:14:57.216Z,50.47
2019-04-30T00:17:25.749Z,48.77
2019-04-30T00:19:55.971Z,46.27
2019-04-30T00:22:31.713Z,54.70
2019-04-30T00:24:55.637Z,49.80
2019-04-30T00:27:26.421Z,50.53
2019-04-30T00:29:55.826Z,49.13
2019-04-30T00:32:25.806Z,53.87
2019-04-30T00:34:55.613Z,56.43
2019-04-30T00:37:25.436Z,61.37
2019-04-30T00:39:55.598Z,47.77
2019-04-30T00:42:28.427Z,52.53
2019-04-30T00:44:55.306Z,53.50
2019-04-30T00:47:25.660Z,53.47
2019-04-30T00:49:57.577Z,53.50
2019-04-30T00:52:25.320Z,53.33
2019-04-30T00:54:55.315Z,62.23
2019-04-30T00:57:26.374Z,53.57
2019-04-30T00:59:54.869Z,60.97
2019-04-30T01:02:35.759Z,54.97
2019-04-30T01:05:19.306Z,46.10
2019-04-30T01:07:51.557Z,49.90
2019-04-30T01:10:19.608Z,50.53
2019-04-30T01:12:50.265Z,50.47
2019-04-30T01:15:19.090Z,43.60
2019-04-30T01:17:50.977Z,55.27
2019-04-30T01:20:19.389Z,45.37
2019-04-30T01:22:48.711Z,42.40
2019-04-30T01:25:18.761Z,46.30
2019-04-30T01:27:49.091Z,47.93
2019-04-30T01:30:22.425Z,47.63
2019-04-30T01:32:51.965Z,48.90
2019-04-30T01:35:19.117Z,48.80
2019-04-30T01:37:48.779Z,44.97
2019-04-30T01:40:19.033Z,49.13
2019-04-30T01:42:50.765Z,43.67
2019-04-30T01:45:18.758Z,48.57
2019-04-30T01:47:49.466Z,43.93
2019-04-30T01:50:19.303Z,44.43
2019-04-30T01:52:53.671Z,53.67
2019-04-30T01:55:25.115Z,49.77
2019-04-30T01:57:59.139Z,49.37
2019-04-30T02:00:29.421Z,45.20
2019-04-30T02:02:59.257Z,46.20
2019-04-30T02:05:28.750Z,46.63
2019-04-30T02:07:58.525Z,47.40
2019-04-30T02:10:28.815Z,45.40
2019-04-30T02:12:58.955Z,47.63
2019-04-30T02:15:29.224Z,43.60
2019-04-30T02:17:58.705Z,45.87
2019-04-30T02:20:28.735Z,44.07
2019-04-30T02:22:58.635Z,44.37
2019-04-30T02:25:29.388Z,44.47
2019-04-30T02:27:59.096Z,49.00
2019-04-30T02:30:30.483Z,56.37
2019-04-30T02:33:00.634Z,47.57
2019-04-30T02:35:29.748Z,56.40
2019-04-30T02:38:14.734Z,55.10
2019-04-30T02:40:43.737Z,51.80
2019-04-30T02:43:12.354Z,48.37
2019-04-30T02:45:42.123Z,48.60
2019-04-30T02:48:11.962Z,51.17
2019-04-30T02:50:42.102Z,53.67
2019-04-30T02:53:46.952Z,53.60
2019-04-30T02:56:15.471Z,48.57
2019-04-30T02:58:44.041Z,58.83
2019-04-30T03:01:12.581Z,57.83
2019-04-30T03:03:42.670Z,53.47
2019-04-30T03:06:12.905Z,43.47
2019-04-30T03:08:41.489Z,55.73
2019-04-30T03:11:11.452Z,53.97
2019-04-30T03:13:42.562Z,56.10
2019-04-30T03:16:11.770Z,51.83
2019-04-30T03:18:50.868Z,51.20
2019-04-30T03:21:40.343Z,53.30
2019-04-30T03:24:10.513Z,49.70
2019-04-30T03:26:40.094Z,54.97
2019-04-30T03:29:11.133Z,56.10
2019-04-30T03:31:44.321Z,51.43
2019-04-30T03:34:16.943Z,51.80
2019-04-30T03:36:40.357Z,52.70
2019-04-30T03:39:10.851Z,49.90
2019-04-30T03:41:41.385Z,42.50
2019-04-30T03:44:20.783Z,54.07
2019-04-30T03:46:40.457Z,48.60
2019-04-30T03:49:10.624Z,50.70
2019-04-30T03:51:40.223Z,46.17
2019-04-30T03:54:09.972Z,55.93
2019-04-30T03:56:40.010Z,58.73
2019-04-30T03:59:10.524Z,57.47
2019-04-30T04:01:43.925Z,53.50
2019-04-30T04:04:19.874Z,52.73
2019-04-30T04:07:04.971Z,51.83
2019-04-30T04:09:41.268Z,52.87
2019-04-30T04:12:26.106Z,45.80
2019-04-30T04:14:54.570Z,52.70
2019-04-30T04:17:23.480Z,46.80
2019-04-30T04:19:51.945Z,50.30
2019-04-30T04:22:21.243Z,52.00
2019-04-30T04:24:50.810Z,57.30
2019-04-30T04:27:19.829Z,60.23
2019-04-30T04:29:51.060Z,50.77
2019-04-30T04:32:23.605Z,59.67
2019-04-30T04:34:50.422Z,53.60
2019-04-30T04:37:20.245Z,48.83
2019-04-30T04:39:50.039Z,54.37
2019-04-30T04:42:19.683Z,61.80
2019-04-30T04:44:50.202Z,58.40
2019-04-30T04:47:20.001Z,59.00
2019-04-30T04:49:53.195Z,58.10
2019-04-30T04:52:21.407Z,56.63
2019-04-30T04:54:50.594Z,65.40
2019-04-30T04:57:22.657Z,56.43
2019-04-30T04:59:50.164Z,56.93
2019-04-30T05:02:32.195Z,58.87
2019-04-30T05:04:59.942Z,66.70
2019-04-30T05:07:28.806Z,57.67
2019-04-30T05:10:00.545Z,70.90
2019-04-30T05:12:29.590Z,61.00
2019-04-30T05:14:59.585Z,58.47
2019-04-30T05:17:29.678Z,60.40
2019-04-30T05:19:58.752Z,58.60
2019-04-30T05:22:29.152Z,51.60
2019-04-30T05:24:58.825Z,52.50
2019-04-30T05:27:27.627Z,60.07
2019-04-30T05:29:56.157Z,56.30
2019-04-30T05:32:24.693Z,62.67
2019-04-30T05:34:53.385Z,61.13
2019-04-30T05:37:22.486Z,59.33
2019-04-30T05:39:51.225Z,54.83
2019-04-30T05:42:19.821Z,51.33
2019-04-30T05:44:49.666Z,53.80
2019-04-30T05:47:19.591Z,55.33
2019-04-30T05:49:49.020Z,63.93
2019-04-30T05:52:19.932Z,58.77
2019-04-30T05:54:48.727Z,62.83
2019-04-30T05:57:19.602Z,54.97
2019-04-30T05:59:48.881Z,52.37
2019-04-30T06:02:19.288Z,58.93
2019-04-30T06:04:49.008Z,59.40
2019-04-30T06:07:18.854Z,59.43
2019-04-30T06:09:52.980Z,62.43
2019-04-30T06:12:26.194Z,61.57
2019-04-30T06:15:02.167Z,62.60
2019-04-30T06:17:32.065Z,57.13
2019-04-30T06:20:00.968Z,72.73
2019-04-30T06:22:29.698Z,59.47
2019-04-30T06:24:59.464Z,62.43
2019-04-30T06:27:29.121Z,71.03
2019-04-30T06:29:58.488Z,68.60
2019-04-30T06:32:27.206Z,72.90
2019-04-30T06:34:55.915Z,74.97
2019-04-30T06:37:24.795Z,65.93
2019-04-30T06:39:54.475Z,73.73
2019-04-30T06:42:23.279Z,64.40
2019-04-30T06:44:52.072Z,64.07
2019-04-30T06:47:32.403Z,80.27
2019-04-30T06:49:51.821Z,72.60
2019-04-30T06:52:23.391Z,62.87
2019-04-30T06:54:50.698Z,66.63
2019-04-30T06:57:19.908Z,66.90
2019-04-30T06:59:51.236Z,55.67
2019-04-30T07:02:19.662Z,62.60
2019-04-30T07:04:49.159Z,57.43
2019-04-30T07:07:22.703Z,62.77
2019-04-30T07:10:02.491Z,55.87
2019-04-30T07:12:34.160Z,52.93
2019-04-30T07:15:03.319Z,57.50
2019-04-30T07:17:31.816Z,55.97
2019-04-30T07:20:00.282Z,53.10
2019-04-30T07:22:37.634Z,56.83
2019-04-30T07:24:59.596Z,53.10
2019-04-30T07:27:31.927Z,53.83
2019-04-30T07:29:59.617Z,48.03
2019-04-30T07:32:28.854Z,54.00
2019-04-30T07:34:59.300Z,50.77
2019-04-30T07:37:29.330Z,48.53
2019-04-30T07:39:58.947Z,50.40
2019-04-30T07:42:29.474Z,57.33
2019-04-30T07:45:00.442Z,52.50
2019-04-30T07:47:29.616Z,57.20
2019-04-30T07:50:00.746Z,58.27
2019-04-30T07:52:33.233Z,53.87
2019-04-30T07:55:00.707Z,57.83
2019-04-30T07:57:29.194Z,49.90
2019-04-30T08:00:00.531Z,52.73
2019-04-30T08:02:36.393Z,54.57
2019-04-30T08:05:02.787Z,53.97
2019-04-30T08:07:31.385Z,51.57
2019-04-30T08:09:59.965Z,51.80
2019-04-30T08:12:33.625Z,61.73
2019-04-30T08:14:59.493Z,48.60
2019-04-30T08:17:28.950Z,53.30
2019-04-30T08:19:58.834Z,49.90
2019-04-30T08:22:29.594Z,57.97
2019-04-30T08:24:58.706Z,52.40
2019-04-30T08:27:29.456Z,51.27
2019-04-30T08:29:59.233Z,50.80
2019-04-30T08:32:29.001Z,59.87
2019-04-30T08:35:01.002Z,63.17
2019-04-30T08:37:28.867Z,55.27
2019-04-30T08:39:59.790Z,60.07
2019-04-30T08:42:31.620Z,59.00
2019-04-30T08:44:58.561Z,53.50
2019-04-30T08:47:29.098Z,62.33
2019-04-30T08:50:01.693Z,59.40
2019-04-30T08:52:27.788Z,59.07
2019-04-30T08:54:56.260Z,47.70
2019-04-30T08:57:24.800Z,55.97
2019-04-30T08:59:53.266Z,51.93
2019-04-30T09:02:21.725Z,55.13
2019-04-30T09:04:51.909Z,53.40
2019-04-30T09:07:20.420Z,62.80
2019-04-30T09:09:49.028Z,54.80
2019-04-30T09:12:19.418Z,53.73
2019-04-30T09:14:49.031Z,59.80
2019-04-30T09:17:19.656Z,52.80
2019-04-30T09:19:49.050Z,55.27
2019-04-30T09:22:19.554Z,49.37
2019-04-30T09:24:49.710Z,54.70
2019-04-30T09:27:19.575Z,48.87
2019-04-30T09:29:49.241Z,50.37
2019-04-30T09:32:19.302Z,50.00
2019-04-30T09:34:48.852Z,63.50
2019-04-30T09:37:18.700Z,55.07
2019-04-30T09:39:49.439Z,56.83
2019-04-30T09:42:19.460Z,49.57
2019-04-30T09:44:49.224Z,50.07
2019-04-30T09:47:19.863Z,50.87
2019-04-30T09:49:49.336Z,52.50
2019-04-30T09:52:19.187Z,52.07
2019-04-30T09:54:49.964Z,50.27
2019-04-30T09:57:19.329Z,47.00
2019-04-30T09:59:48.631Z,52.07
2019-04-30T10:02:19.096Z,49.40
2019-04-30T10:04:48.156Z,46.40
2019-04-30T10:07:17.066Z,49.80
2019-04-30T10:09:45.526Z,44.40
2019-04-30T10:12:15.250Z,52.90
2019-04-30T10:14:43.787Z,46.37
2019-04-30T10:17:13.990Z,66.43
2019-04-30T10:19:42.810Z,46.70
2019-04-30T10:22:11.354Z,44.03
2019-04-30T10:24:40.074Z,42.73
2019-04-30T10:27:13.070Z,44.33
2019-04-30T10:29:39.501Z,43.60
2019-04-30T10:32:09.132Z,44.90
2019-04-30T10:34:37.654Z,49.87
2019-04-30T10:37:06.190Z,44.37
2019-04-30T10:39:34.734Z,39.73
2019-04-30T10:42:03.606Z,37.77
2019-04-30T10:44:32.098Z,40.90
2019-04-30T10:47:00.699Z,39.87
2019-04-30T10:49:29.343Z,39.77
2019-04-30T10:51:59.396Z,43.53
2019-04-30T10:54:28.977Z,37.97
2019-04-30T10:56:59.169Z,37.90
2019-04-30T10:59:27.988Z,37.40
2019-04-30T11:01:56.451Z,36.03
2019-04-30T11:04:24.927Z,34.03
2019-04-30T11:06:53.407Z,37.57
2019-04-30T11:09:22.036Z,35.20
2019-04-30T11:11:50.630Z,48.73
2019-04-30T11:14:19.084Z,36.57
2019-04-30T11:16:51.237Z,39.17
2019-04-30T11:19:19.282Z,35.63
2019-04-30T11:21:48.253Z,37.33
2019-04-30T11:24:17.563Z,35.67
2019-04-30T11:26:49.495Z,32.40
2019-04-30T11:29:17.538Z,41.03
2019-04-30T11:31:48.269Z,37.53
2019-04-30T11:34:16.995Z,36.80
2019-04-30T11:36:45.475Z,34.40
2019-04-30T11:39:15.656Z,32.60
2019-04-30T11:41:44.160Z,34.43
2019-04-30T11:44:12.664Z,38.70
2019-04-30T11:47:02.254Z,35.67
2019-04-30T11:49:30.716Z,33.73
2019-04-30T11:51:59.379Z,36.73
2019-04-30T11:54:29.716Z,35.60
2019-04-30T11:56:58.763Z,32.20
2019-04-30T11:59:29.613Z,35.20
2019-04-30T12:01:59.501Z,36.07
2019-04-30T12:04:29.930Z,37.33
2019-04-30T12:06:59.851Z,35.40
2019-04-30T12:09:48.460Z,34.27
2019-04-30T12:12:18.795Z,32.83
2019-04-30T12:14:47.207Z,31.07
2019-04-30T12:17:15.749Z,30.60
2019-04-30T12:19:44.236Z,35.10
2019-04-30T12:22:12.686Z,34.63
2019-04-30T12:24:41.187Z,40.40
2019-04-30T12:27:09.669Z,37.60
2019-04-30T12:29:39.770Z,33.83
2019-04-30T12:32:08.393Z,33.37
2019-04-30T12:34:36.868Z,30.53
2019-04-30T12:37:05.485Z,26.77
2019-04-30T12:39:33.937Z,28.60
2019-04-30T12:42:02.405Z,27.77
2019-04-30T12:44:30.865Z,29.13
2019-04-30T12:46:59.338Z,34.90
2019-04-30T12:49:29.423Z,29.90
2019-04-30T12:52:11.539Z,27.40
2019-04-30T12:54:41.721Z,34.80
2019-04-30T12:57:14.681Z,31.00
2019-04-30T12:59:43.143Z,30.60
2019-04-30T13:02:11.761Z,37.03
2019-04-30T13:04:40.232Z,25.83
2019-04-30T13:07:10.570Z,30.37
2019-04-30T13:09:40.268Z,25.30
2019-04-30T13:12:10.390Z,26.30
2019-04-30T13:14:51.087Z,37.10
2019-04-30T13:17:09.651Z,135.27
2019-04-30T13:19:38.114Z,62.53
2019-04-30T13:22:06.653Z,29.70
2019-04-30T13:24:35.183Z,32.00
2019-04-30T13:27:03.771Z,27.87
2019-04-30T13:29:39.921Z,29.97
2019-04-30T13:32:08.673Z,32.43
2019-04-30T13:34:44.846Z,31.83
2019-04-30T13:37:21.051Z,33.40
2019-04-30T13:40:00.222Z,31.97
2019-04-30T13:42:33.601Z,30.00
2019-04-30T13:45:08.164Z,33.90
2019-04-30T13:47:36.835Z,29.63
2019-04-30T13:50:06.281Z,35.67
2019-04-30T13:52:34.900Z,31.17
2019-04-30T13:55:04.238Z,29.00
2019-04-30T13:57:34.349Z,31.47
2019-04-30T14:00:04.713Z,33.80
2019-04-30T14:02:34.895Z,28.03
2019-04-30T14:05:05.393Z,33.23
2019-04-30T14:07:44.346Z,27.70
2019-04-30T14:10:12.968Z,31.80
2019-04-30T14:12:43.161Z,29.30
2019-04-30T14:15:12.301Z,32.53
2019-04-30T14:17:40.914Z,32.10
2019-04-30T14:20:10.060Z,31.80
2019-04-30T14:22:40.181Z,30.57
2019-04-30T14:25:08.938Z,39.63
2019-04-30T14:27:48.966Z,36.30
2019-04-30T14:30:09.294Z,37.10
2019-04-30T14:32:40.340Z,38.77
2019-04-30T14:35:10.530Z,31.33
2019-04-30T14:37:39.097Z,33.87
2019-04-30T14:40:12.315Z,34.33
2019-04-30T14:42:40.276Z,30.73
2019-04-30T14:45:18.233Z,32.07
2019-04-30T14:48:05.973Z,31.10
2019-04-30T14:50:38.549Z,30.47
2019-04-30T14:53:24.161Z,42.33
2019-04-30T14:56:09.554Z,44.43
2019-04-30T14:58:44.350Z,31.23
2019-04-30T15:01:19.263Z,29.03
2019-04-30T15:03:51.715Z,30.60
2019-04-30T15:06:24.901Z,32.97
2019-04-30T15:08:53.500Z,31.20
2019-04-30T15:11:22.046Z,30.10
2019-04-30T15:13:52.210Z,28.70
2019-04-30T15:16:21.812Z,29.80
2019-04-30T15:18:57.306Z,30.03
2019-04-30T15:21:29.141Z,32.93
2019-04-30T15:24:01.702Z,33.37
2019-04-30T15:26:29.662Z,30.70
2019-04-30T15:29:00.092Z,36.57
2019-04-30T15:31:29.658Z,31.83
2019-04-30T15:34:11.880Z,31.80
2019-04-30T15:36:43.528Z,31.23
2019-04-30T15:39:13.971Z,33.20
2019-04-30T15:41:42.806Z,33.30
2019-04-30T15:44:14.586Z,31.83
2019-04-30T15:46:43.120Z,27.23
2019-04-30T15:49:11.734Z,27.83
2019-04-30T15:51:40.250Z,28.27
2019-04-30T15:54:08.910Z,28.77
2019-04-30T15:56:40.293Z,27.20
2019-04-30T15:59:28.953Z,31.27
2019-04-30T16:02:02.395Z,28.83
2019-04-30T16:04:44.750Z,32.33
2019-04-30T16:07:13.412Z,29.33
2019-04-30T16:09:59.133Z,24.57
2019-04-30T16:12:41.742Z,33.60
2019-04-30T16:15:10.714Z,31.67
2019-04-30T16:17:40.867Z,28.03
2019-04-30T16:20:09.565Z,28.57
2019-04-30T16:22:39.199Z,32.00
2019-04-30T16:25:08.622Z,26.30
2019-04-30T16:27:37.268Z,28.13
2019-04-30T16:30:06.958Z,27.07
2019-04-30T16:32:35.434Z,33.40
2019-04-30T16:35:05.914Z,27.87
2019-04-30T16:37:34.373Z,26.00
2019-04-30T16:40:02.902Z,24.87
2019-04-30T16:45:14.554Z,29.97
2019-04-30T16:47:43.140Z,24.90
2019-04-30T16:50:25.374Z,31.87
2019-04-30T16:52:54.022Z,29.80
2019-04-30T16:55:23.021Z,27.33
2019-04-30T16:57:51.980Z,24.50
2019-04-30T17:00:22.756Z,27.63
2019-04-30T17:03:03.160Z,31.87
2019-04-30T17:05:36.047Z,24.57
2019-04-30T17:08:06.467Z,26.87
2019-04-30T17:10:36.837Z,25.87
2019-04-30T17:13:19.365Z,26.60
2019-04-30T17:15:49.453Z,24.50
2019-04-30T17:18:19.086Z,27.30
2019-04-30T17:20:49.085Z,27.40
2019-04-30T17:23:19.336Z,30.27
2019-04-30T17:25:48.031Z,27.93
2019-04-30T17:28:18.838Z,28.70
2019-04-30T17:30:49.162Z,26.10
2019-04-30T17:33:20.164Z,28.67
2019-04-30T17:35:49.888Z,26.57
2019-04-30T17:38:18.508Z,24.90
2019-04-30T17:40:49.481Z,23.40
2019-04-30T17:43:17.495Z,25.00
2019-04-30T17:45:46.129Z,24.03
2019-04-30T17:48:14.593Z,30.60
2019-04-30T17:50:43.183Z,23.23
2019-04-30T17:53:11.648Z,23.70
2019-04-30T17:55:40.135Z,24.07
2019-04-30T17:58:09.800Z,22.40
2019-04-30T18:00:40.451Z,22.37
2019-04-30T18:03:10.943Z,22.37
2019-04-30T18:05:39.383Z,22.50
2019-04-30T18:08:08.091Z,21.83
2019-04-30T18:10:36.931Z,24.00
2019-04-30T18:13:05.821Z,23.93
2019-04-30T18:15:34.366Z,22.13
2019-04-30T18:18:10.262Z,22.03
2019-04-30T18:20:56.921Z,27.90
2019-04-30T18:23:27.215Z,20.07
2019-04-30T18:25:59.919Z,21.20
2019-04-30T18:28:29.152Z,22.47
2019-04-30T18:30:59.069Z,19.57
2019-04-30T18:33:29.429Z,16.80
2019-04-30T18:35:59.708Z,19.67
2019-04-30T18:38:29.294Z,18.23
2019-04-30T18:40:59.466Z,20.97
2019-04-30T18:43:28.778Z,21.63
2019-04-30T18:45:57.415Z,20.90
2019-04-30T18:48:29.375Z,18.23
2019-04-30T18:50:56.163Z,20.87
2019-04-30T18:53:28.695Z,18.70
2019-04-30T18:55:59.179Z,16.90
2019-04-30T18:58:39.237Z,17.30
2019-04-30T19:00:59.255Z,15.93
2019-04-30T19:03:29.303Z,17.63
2019-04-30T19:05:59.581Z,17.87
2019-04-30T19:08:29.826Z,21.67
2019-04-30T19:11:05.656Z,20.60
2019-04-30T19:13:50.948Z,19.83
2019-04-30T19:16:39.991Z,21.60
2019-04-30T19:19:09.376Z,20.93
2019-04-30T19:21:40.181Z,27.53
2019-04-30T19:24:08.703Z,20.43
2019-04-30T19:26:38.867Z,18.60
2019-04-30T19:29:08.474Z,16.80
2019-04-30T19:31:39.471Z,18.57
2019-04-30T19:34:09.762Z,20.43
2019-04-30T19:36:40.540Z,19.40
2019-04-30T19:39:09.914Z,25.00
2019-04-30T19:41:38.900Z,20.43
2019-04-30T19:44:07.652Z,21.37
2019-04-30T19:46:36.297Z,21.27
2019-04-30T19:49:05.195Z,22.03
2019-04-30T19:51:34.029Z,20.67
2019-04-30T19:54:02.502Z,22.47
2019-04-30T19:56:32.859Z,21.93
2019-04-30T19:59:05.299Z,23.23
2019-04-30T20:01:31.417Z,22.07
2019-04-30T20:03:59.973Z,20.70
2019-04-30T20:06:28.765Z,25.43
2019-04-30T20:08:58.773Z,25.60
2019-04-30T20:11:27.510Z,21.53
2019-04-30T20:13:55.966Z,22.10
2019-04-30T20:16:24.446Z,20.07
2019-04-30T20:18:52.906Z,21.27
2019-04-30T20:21:27.894Z,22.97
2019-04-30T20:23:53.267Z,21.13
2019-04-30T20:26:23.099Z,20.77
2019-04-30T20:28:51.564Z,19.37
2019-04-30T20:31:20.030Z,25.07
2019-04-30T20:33:53.667Z,24.20
2019-04-30T20:36:22.012Z,20.80
2019-04-30T20:38:54.998Z,25.10
2019-04-30T20:41:25.123Z,24.77
2019-04-30T20:43:53.614Z,27.50
2019-04-30T20:46:34.361Z,24.67
2019-04-30T20:48:54.898Z,27.20
2019-04-30T20:51:23.565Z,28.40
2019-04-30T20:53:52.476Z,26.83
2019-04-30T20:56:20.964Z,27.60
2019-04-30T20:58:57.848Z,30.70
2019-04-30T21:01:20.480Z,32.40
2019-04-30T21:03:50.138Z,35.30
2019-04-30T21:06:19.793Z,31.93
2019-04-30T21:08:48.401Z,28.73
2019-04-30T21:11:16.886Z,32.43
2019-04-30T21:13:46.752Z,34.63
2019-04-30T21:16:15.441Z,33.20
2019-04-30T21:18:44.018Z,33.23
2019-04-30T21:21:12.798Z,30.07
2019-04-30T21:23:41.817Z,38.47
2019-04-30T21:26:10.446Z,37.77
2019-04-30T21:28:39.363Z,35.87
2019-04-30T21:31:25.726Z,39.43
2019-04-30T21:33:58.256Z,38.80
2019-04-30T21:36:28.518Z,40.00
2019-04-30T21:38:58.957Z,39.60
2019-04-30T21:41:30.624Z,41.50
2019-04-30T21:43:59.344Z,40.83
2019-04-30T21:46:29.281Z,42.27
2019-04-30T21:48:58.733Z,39.63
2019-04-30T21:51:29.733Z,47.13
2019-04-30T21:53:59.978Z,46.07
2019-04-30T21:56:28.547Z,43.67
2019-04-30T21:58:57.226Z,46.03
2019-04-30T22:01:25.981Z,52.10
2019-04-30T22:03:54.767Z,43.73
2019-04-30T22:06:24.995Z,43.50
2019-04-30T22:08:58.460Z,41.87
2019-04-30T22:11:29.659Z,49.33
2019-04-30T22:13:58.644Z,44.20
2019-04-30T22:16:29.523Z,47.53
2019-04-30T22:18:57.795Z,50.27
2019-04-30T22:21:28.263Z,54.47
2019-04-30T22:23:57.186Z,54.00
2019-04-30T22:26:25.851Z,51.73
2019-04-30T22:28:54.635Z,52.80
2019-04-30T22:31:23.107Z,53.93
2019-04-30T22:33:51.773Z,63.00
2019-04-30T22:36:29.034Z,54.63
2019-04-30T22:39:09.273Z,59.17
2019-04-30T22:41:39.769Z,52.73
2019-04-30T22:44:08.551Z,56.43
2019-04-30T22:46:39.235Z,55.73
2019-04-30T22:49:07.345Z,56.27
2019-04-30T22:51:35.835Z,56.03
2019-04-30T22:54:04.511Z,59.67
2019-04-30T22:56:33.097Z,59.73
2019-04-30T22:59:01.628Z,59.47
2019-04-30T23:01:44.200Z,56.90
2019-04-30T23:04:20.569Z,58.23
2019-04-30T23:06:49.198Z,62.53
2019-04-30T23:09:18.249Z,56.60
2019-04-30T23:11:46.933Z,54.93
2019-04-30T23:14:15.485Z,52.97
2019-04-30T23:16:44.211Z,55.77
2019-04-30T23:19:12.727Z,53.97
2019-04-30T23:21:41.300Z,58.73
2019-04-30T23:24:26.223Z,64.40
2019-04-30T23:26:50.421Z,64.53
2019-04-30T23:29:25.397Z,64.80
2019-04-30T23:31:54.327Z,61.47
2019-04-30T23:34:43.150Z,57.60
2019-04-30T23:37:16.635Z,62.53
2019-04-30T23:39:44.864Z,62.90
2019-04-30T23:42:17.587Z,64.87
2019-04-30T23:44:46.140Z,59.73
2019-04-30T23:47:14.717Z,59.77
2019-04-30T23:49:46.226Z,60.93
2019-04-30T23:52:16.430Z,65.03
2019-04-30T23:54:46.831Z,64.87
2019-04-30T23:57:15.370Z,71.23
2019-04-30T23:59:43.947Z,65.07
